Time;durP1;ratioP1;P1;durP2;ratioP2;P2;SDS_P1;SDS_P2;PMS_P1;PMS_P2;Temp;Humidity;BMP_temperature;BMP_pressure;BME280_temperature;BME280_humidity;BME280_pressure;Samples;Min_cycle;Max_cycle;Signal;HPM_P1;HPM_P2
2022/05/29 00:00:14;;;;;;;8.48;6.05;;;435.70;2355.20;;;;;;5051450;28;20037;-74
2022/05/29 00:02:40;;;;;;;10.57;6.60;;;435.70;2355.20;;;;;;5051605;28;20090;-75
2022/05/29 00:05:08;;;;;;;9.98;5.45;;;435.60;2355.20;;;;;;5051746;28;20079;-74
2022/05/29 00:07:35;;;;;;;8.35;5.53;;;435.60;2355.20;;;;;;5051729;28;20021;-75
2022/05/29 00:10:05;;;;;;;9.70;5.32;;;435.50;2355.20;;;;;;5051308;28;20051;-74
2022/05/29 00:12:30;;;;;;;8.18;5.28;;;435.50;2355.20;;;;;;5051442;28;20028;-73
2022/05/29 00:14:56;;;;;;;9.25;5.25;;;435.50;2355.20;;;;;;5051424;28;20029;-74
2022/05/29 00:17:22;;;;;;;9.32;5.05;;;435.50;2355.20;;;;;;5051547;28;20063;-75
2022/05/29 00:19:48;;;;;;;9.85;5.35;;;435.50;2355.20;;;;;;5051300;28;20044;-76
2022/05/29 00:22:20;;;;;;;10.85;5.10;;;435.50;2355.20;;;;;;5051358;28;20025;-75
2022/05/29 00:24:47;;;;;;;11.80;5.80;;;435.50;2355.20;;;;;;5049315;28;20041;-74
2022/05/29 00:27:16;;;;;;;9.73;6.97;;;435.50;2355.20;;;;;;5051189;28;20021;-75
2022/05/29 00:29:43;;;;;;;10.00;6.60;;;435.50;2355.20;;;;;;5052491;28;20048;-75
2022/05/29 00:32:09;;;;;;;10.82;6.22;;;435.50;2355.20;;;;;;5052577;28;20059;-75
2022/05/29 00:34:35;;;;;;;14.05;7.05;;;435.50;2355.20;;;;;;5052555;28;20557;-74
2022/05/29 00:37:04;;;;;;;13.18;6.50;;;435.40;2355.20;;;;;;5054114;28;20039;-75
2022/05/29 00:39:31;;;;;;;12.95;7.10;;;435.50;2355.20;;;;;;5055212;28;20029;-77
2022/05/29 00:41:57;;;;;;;9.50;6.80;;;435.40;2355.20;;;;;;5056473;28;20031;-77
2022/05/29 00:44:30;;;;;;;11.40;7.25;;;435.50;2355.20;;;;;;5052368;28;20108;-76
2022/05/29 00:46:57;;;;;;;11.00;7.18;;;435.50;2355.20;;;;;;5056461;28;20031;-76
2022/05/29 00:49:25;;;;;;;12.90;7.53;;;435.40;2355.20;;;;;;5056308;28;20040;-75
2022/05/29 00:52:09;;;;;;;14.07;8.15;;;435.40;2355.20;;;;;;5055036;28;20036;-74
2022/05/29 00:54:53;;;;;;;12.20;7.55;;;435.50;2355.20;;;;;;5055269;28;20051;-76
2022/05/29 00:57:25;;;;;;;11.27;7.40;;;435.40;2355.20;;;;;;5055468;28;20056;-77
2022/05/29 00:59:51;;;;;;;17.25;8.05;;;435.50;2355.20;;;;;;5053903;28;20075;-75
2022/05/29 01:02:17;;;;;;;12.13;8.27;;;435.50;2355.20;;;;;;5056082;28;20477;-76
2022/05/29 01:04:43;;;;;;;11.25;6.85;;;435.50;2355.20;;;;;;5056019;28;20017;-77
2022/05/29 01:07:12;;;;;;;12.50;6.93;;;435.60;2355.20;;;;;;5056000;28;20021;-75
2022/05/29 01:09:40;;;;;;;11.63;5.70;;;435.50;2355.20;;;;;;5055708;28;20036;-74
2022/05/29 01:12:31;;;;;;;11.32;6.88;;;435.50;2355.20;;;;;;5055890;28;20426;-77
2022/05/29 01:15:05;;;;;;;8.75;5.90;;;435.50;2355.20;;;;;;5052445;28;20016;-77
2022/05/29 01:17:52;;;;;;;11.02;7.80;;;435.50;2355.20;;;;;;5055800;28;20020;-77
2022/05/29 01:20:18;;;;;;;10.25;7.05;;;435.40;2355.20;;;;;;5054010;28;20029;-76
2022/05/29 01:23:17;;;;;;;11.15;6.95;;;435.50;2355.20;;;;;;5055736;28;20362;-77
2022/05/29 01:25:52;;;;;;;9.20;6.13;;;435.40;2355.20;;;;;;5051302;28;20017;-76
2022/05/29 01:28:36;;;;;;;13.40;6.72;;;435.40;2355.20;;;;;;5053079;28;20021;-76
2022/05/29 01:31:21;;;;;;;11.07;6.45;;;435.40;2355.20;;;;;;5053741;28;20361;-75
2022/05/29 01:34:09;;;;;;;8.98;6.40;;;435.50;2355.20;;;;;;5053083;28;20361;-76
2022/05/29 01:36:41;;;;;;;8.00;5.68;;;435.50;2355.20;;;;;;5052260;28;20036;-76
2022/05/29 01:39:18;;;;;;;9.57;5.65;;;435.30;2355.20;;;;;;5055461;28;20361;-75
2022/05/29 01:42:10;;;;;;;7.68;5.38;;;410.50;2355.20;;;;;;5053560;28;20040;-75
2022/05/29 01:44:52;;;;;;;8.55;5.35;;;435.30;2355.20;;;;;;5052668;28;20511;-76
2022/05/29 01:47:26;;;;;;;8.80;5.20;;;435.30;2355.20;;;;;;5052768;28;20503;-75
2022/05/29 01:50:05;;;;;;;9.57;4.82;;;435.40;2355.20;;;;;;5054672;28;20047;-75
2022/05/29 01:52:43;;;;;;;11.93;5.13;;;435.40;2355.20;;;;;;5055091;28;20064;-75
2022/05/29 01:55:33;;;;;;;6.65;4.80;;;435.30;2355.20;;;;;;5054064;28;20048;-76
2022/05/29 01:58:04;;;;;;;11.55;4.45;;;435.20;2355.20;;;;;;5051905;28;20036;-75
2022/05/29 02:00:31;;;;;;;14.38;6.53;;;435.20;2355.20;;;;;;5054555;28;20554;-75
2022/05/29 02:03:11;;;;;;;6.75;4.25;;;435.30;2355.20;;;;;;5052277;28;20032;-75
2022/05/29 02:05:45;;;;;;;7.32;4.40;;;435.30;2355.20;;;;;;5052238;28;20040;-76
2022/05/29 02:08:32;;;;;;;7.57;5.10;;;435.30;2355.20;;;;;;5053712;28;20017;-75
2022/05/29 02:11:04;;;;;;;;;;;435.20;2355.20;;;;;;5051484;28;20136;-75
2022/05/29 02:13:44;;;;;;;10.07;4.85;;;410.30;2355.20;;;;;;5054690;28;19954;-75
2022/05/29 02:16:19;;;;;;;11.85;4.88;;;410.30;2355.20;;;;;;5052631;28;20025;-75
2022/05/29 02:19:16;;;;;;;12.05;4.60;;;410.30;2355.20;;;;;;5053091;28;20056;-75
2022/05/29 02:21:56;;;;;;;9.20;5.28;;;410.50;2355.20;;;;;;5012657;28;20497;-76
2022/05/29 02:24:30;;;;;;;15.88;5.25;;;410.50;2355.20;;;;;;4992282;28;20045;-76
2022/05/29 02:27:02;;;;;;;6.72;4.95;;;435.20;2355.20;;;;;;5012677;28;20046;-75
2022/05/29 02:29:28;;;;;;;8.90;4.65;;;435.20;2355.20;;;;;;4996259;28;20487;-75
2022/05/29 02:32:08;;;;;;;8.60;4.80;;;435.20;2355.20;;;;;;5012601;28;20129;-76
2022/05/29 02:34:59;;;;;;;10.15;4.97;;;435.30;2355.20;;;;;;4996198;28;20502;-76
2022/05/29 02:37:49;;;;;;;7.25;5.10;;;435.20;2355.20;;;;;;4994290;28;20040;-76
2022/05/29 02:40:26;;;;;;;9.07;4.88;;;435.20;2355.20;;;;;;5011894;28;20030;-76
2022/05/29 02:43:07;;;;;;;8.57;4.93;;;435.20;2355.20;;;;;;4995998;28;20028;-75
2022/05/29 02:45:54;;;;;;;11.02;5.03;;;435.20;2355.20;;;;;;5011517;28;20540;-74
2022/05/29 02:48:42;;;;;;;9.30;5.63;;;410.50;2355.20;;;;;;5009757;28;20116;-76
2022/05/29 02:51:34;;;;;;;7.38;5.35;;;410.30;2355.20;;;;;;5010721;28;20048;-74
2022/05/29 02:54:00;;;;;;;9.98;5.05;;;410.20;2355.20;;;;;;5009668;28;20056;-74
2022/05/29 02:56:26;;;;;;;5.93;4.95;;;410.20;2355.20;;;;;;5012102;28;20518;-75
2022/05/29 02:58:55;;;;;;;9.05;5.07;;;410.20;2355.20;;;;;;5046649;28;20060;-77
2022/05/29 03:01:49;;;;;;;6.75;4.95;;;410.20;2355.20;;;;;;5050327;28;20037;-74
2022/05/29 03:04:30;;;;;;;8.52;5.95;;;410.30;2355.20;;;;;;5053151;28;21457;-76
2022/05/29 03:07:12;;;;;;;9.50;5.53;;;410.30;2355.20;;;;;;5053065;28;20082;-74
2022/05/29 03:09:42;;;;;;;6.82;4.85;;;410.50;2355.20;;;;;;5053635;28;20503;-75
2022/05/29 03:12:23;;;;;;;9.30;5.43;;;410.30;2355.20;;;;;;5053426;28;20048;-76
2022/05/29 03:15:08;;;;;;;11.45;5.65;;;410.20;2355.20;;;;;;5050746;28;20023;-75
2022/05/29 03:17:40;;;;;;;8.43;5.45;;;410.20;2355.20;;;;;;5052666;28;20103;-76
2022/05/29 03:20:08;;;;;;;8.35;5.07;;;410.30;2355.20;;;;;;5050060;28;20025;-75
2022/05/29 03:22:59;;;;;;;7.88;4.72;;;410.20;2355.20;;;;;;5052120;28;20029;-78
2022/05/29 03:25:41;;;;;;;7.97;4.88;;;410.30;2355.20;;;;;;5051252;28;20025;-75
2022/05/29 03:28:19;;;;;;;9.85;5.40;;;410.30;2355.20;;;;;;5051239;28;20021;-74
2022/05/29 03:30:48;;;;;;;10.73;5.70;;;410.30;2355.20;;;;;;5051099;28;20373;-74
2022/05/29 03:33:14;;;;;;;10.73;5.43;;;410.30;2355.20;;;;;;5053329;28;20025;-75
2022/05/29 03:36:03;;;;;;;14.45;5.00;;;410.40;2355.20;;;;;;5053241;28;20103;-74
2022/05/29 03:38:29;;;;;;;10.57;5.70;;;410.40;2355.20;;;;;;5051319;28;20024;-75
2022/05/29 03:40:55;;;;;;;9.68;5.00;;;410.50;2355.20;;;;;;5053615;28;20517;-75
2022/05/29 03:43:21;;;;;;;8.77;4.60;;;410.40;2355.20;;;;;;5052906;28;20017;-75
2022/05/29 03:45:47;;;;;;;8.27;4.82;;;410.50;2355.20;;;;;;5053236;28;20500;-77
2022/05/29 03:48:13;;;;;;;9.30;5.43;;;410.50;2355.20;;;;;;5053154;28;20036;-77
2022/05/29 03:50:39;;;;;;;6.57;4.90;;;410.50;2355.20;;;;;;5052982;28;20036;-76
2022/05/29 03:53:05;;;;;;;9.88;6.32;;;410.50;2355.20;;;;;;5053038;28;20033;-75
2022/05/29 03:55:32;;;;;;;11.10;5.72;;;410.50;2355.20;;;;;;5052994;28;20060;-75
2022/05/29 03:57:58;;;;;;;11.85;5.90;;;410.50;2355.20;;;;;;5053012;28;20017;-76
2022/05/29 04:00:25;;;;;;;13.18;6.70;;;410.50;2355.20;;;;;;5052275;28;20040;-76
2022/05/29 04:02:51;;;;;;;9.32;6.35;;;410.50;2355.20;;;;;;5052775;28;20029;-76
2022/05/29 04:05:21;;;;;;;11.60;6.72;;;410.50;2355.20;;;;;;5052977;28;20024;-77
2022/05/29 04:13:20;;;;;;;11.02;7.13;;;410.50;2355.20;;;;;;5051850;28;20086;-75
2022/05/29 04:15:46;;;;;;;10.95;6.68;;;410.50;2355.20;;;;;;5048752;28;20369;-75
2022/05/29 04:18:16;;;;;;;16.05;7.28;;;410.50;2355.20;;;;;;5052756;28;20024;-76
2022/05/29 04:20:43;;;;;;;12.63;7.40;;;410.50;2355.20;;;;;;5052720;28;20029;-77
2022/05/29 04:23:09;;;;;;;17.15;7.13;;;410.50;2355.20;;;;;;5052646;28;20040;-77
2022/05/29 04:25:35;;;;;;;12.25;6.63;;;435.20;2355.20;;;;;;5051456;28;20048;-77
2022/05/29 04:28:03;;;;;;;10.70;6.03;;;435.20;2355.20;;;;;;5052539;28;20052;-75
2022/05/29 04:30:30;;;;;;;13.30;6.57;;;435.30;2355.20;;;;;;5052611;28;20079;-77
2022/05/29 04:33:02;;;;;;;9.85;6.20;;;435.20;2355.20;;;;;;5052716;28;20017;-76
2022/05/29 04:35:31;;;;;;;15.90;6.55;;;410.40;2355.20;;;;;;5050196;28;20067;-77
2022/05/29 04:37:57;;;;;;;13.88;7.15;;;410.30;2355.20;;;;;;5052594;28;20017;-75
2022/05/29 04:40:24;;;;;;;13.30;7.28;;;410.50;2355.20;;;;;;5052398;28;20028;-76
2022/05/29 04:42:50;;;;;;;12.80;8.38;;;410.30;2355.20;;;;;;5052528;28;20044;-75
2022/05/29 04:45:15;;;;;;;18.33;7.70;;;410.50;2355.20;;;;;;5052559;28;20439;-77
2022/05/29 04:47:41;;;;;;;16.45;7.20;;;410.50;2355.20;;;;;;5052435;28;20025;-76
2022/05/29 04:50:08;;;;;;;11.30;7.30;;;435.30;2355.20;;;;;;5049796;28;20475;-76
2022/05/29 04:52:34;;;;;;;14.35;8.32;;;435.30;2355.20;;;;;;5051000;28;20079;-76
2022/05/29 04:55:00;;;;;;;15.25;8.30;;;435.30;2355.20;;;;;;5052399;28;20539;-76
2022/05/29 04:57:25;;;;;;;14.77;7.70;;;435.40;2355.20;;;;;;5052162;28;20033;-75
2022/05/29 04:59:51;;;;;;;18.70;8.27;;;435.40;2355.20;;;;;;5052004;28;20045;-75
2022/05/29 05:02:17;;;;;;;12.50;7.30;;;435.40;2355.20;;;;;;5052739;28;20488;-77
2022/05/29 05:04:43;;;;;;;17.30;8.40;;;435.40;2355.20;;;;;;5051992;28;20075;-74
2022/05/29 05:07:09;;;;;;;12.35;7.70;;;435.30;2355.20;;;;;;5051895;28;20060;-75
2022/05/29 05:09:35;;;;;;;14.05;8.00;;;435.40;2355.20;;;;;;5052314;28;20036;-75
2022/05/29 05:12:00;;;;;;;15.20;8.38;;;435.30;2355.20;;;;;;5052192;28;20021;-76
2022/05/29 05:14:27;;;;;;;12.18;8.10;;;435.40;2355.20;;;;;;5052391;28;20049;-75
2022/05/29 05:16:53;;;;;;;13.85;7.95;;;435.40;2355.20;;;;;;5052172;28;20070;-78
2022/05/29 05:19:20;;;;;;;9.35;7.38;;;435.30;2355.20;;;;;;5052470;28;20100;-77
2022/05/29 05:21:46;;;;;;;14.88;7.90;;;435.30;2355.20;;;;;;5049888;28;20076;-78
2022/05/29 05:24:12;;;;;;;12.45;8.13;;;435.30;2355.20;;;;;;5053142;28;20056;-78
2022/05/29 05:26:38;;;;;;;11.63;8.27;;;435.30;2355.20;;;;;;5054890;28;20186;-77
2022/05/29 05:29:04;;;;;;;12.80;8.45;;;435.40;2355.20;;;;;;5056107;28;20036;-75
2022/05/29 05:31:30;;;;;;;11.75;7.55;;;435.40;2355.20;;;;;;5056034;28;20041;-78
2022/05/29 05:33:56;;;;;;;14.45;8.48;;;435.60;2355.20;;;;;;5056133;28;20045;-76
2022/05/29 05:36:22;;;;;;;11.93;7.80;;;435.60;2355.20;;;;;;5056030;28;20524;-78
2022/05/29 05:38:47;;;;;;;16.35;9.23;;;435.60;2355.20;;;;;;5054662;28;20477;-76
2022/05/29 05:41:14;;;;;;;15.63;8.80;;;435.60;2355.20;;;;;;5055739;28;20377;-74
2022/05/29 05:43:40;;;;;;;11.60;7.72;;;435.70;2355.20;;;;;;5054470;28;20035;-77
2022/05/29 05:46:12;;;;;;;11.40;7.53;;;435.80;2355.20;;;;;;5054477;28;20037;-75
2022/05/29 05:48:39;;;;;;;10.57;6.75;;;435.90;2355.20;;;;;;5055610;28;20017;-78
2022/05/29 05:51:05;;;;;;;12.45;6.82;;;435.90;2355.20;;;;;;5055901;28;20461;-75
2022/05/29 05:53:32;;;;;;;12.82;7.10;;;435.90;2355.20;;;;;;5055657;28;20032;-77
2022/05/29 05:55:58;;;;;;;14.48;7.78;;;435.90;2355.20;;;;;;5054410;28;20029;-74
2022/05/29 05:58:24;;;;;;;13.40;7.13;;;436.00;2355.20;;;;;;5055432;28;20037;-75
2022/05/29 06:00:50;;;;;;;14.35;7.10;;;436.10;2355.20;;;;;;5055376;28;20084;-79
2022/05/29 06:03:16;;;;;;;10.63;7.03;;;436.10;2355.20;;;;;;5055527;28;20032;-75
2022/05/29 06:05:43;;;;;;;12.20;7.28;;;435.90;2355.20;;;;;;5055492;28;20442;-76
2022/05/29 06:08:09;;;;;;;14.52;8.40;;;435.90;2355.20;;;;;;5054314;28;20021;-78
2022/05/29 06:10:35;;;;;;;10.50;6.50;;;435.90;2355.20;;;;;;5055477;28;20036;-77
2022/05/29 06:13:04;;;;;;;11.27;6.93;;;435.90;2355.20;;;;;;5055345;28;20029;-79
2022/05/29 06:15:30;;;;;;;12.68;6.45;;;436.00;2355.20;;;;;;5054040;28;20029;-79
2022/05/29 06:17:56;;;;;;;14.30;6.72;;;436.00;2355.20;;;;;;5054164;28;20103;-80
2022/05/29 06:20:22;;;;;;;10.60;6.90;;;435.90;2355.20;;;;;;5054130;28;20504;-79
2022/05/29 06:22:48;;;;;;;14.32;6.82;;;436.10;2355.20;;;;;;5054314;28;20025;-79
2022/05/29 06:25:15;;;;;;;17.83;6.78;;;460.80;2380.80;;;;;;5053836;28;20031;-79
2022/05/29 06:27:43;;;;;;;8.80;6.50;;;460.80;2380.80;;;;;;5053953;28;20074;-79
2022/05/29 06:30:12;;;;;;;12.02;7.05;;;461.00;2380.80;;;;;;5055260;28;20032;-79
2022/05/29 06:32:39;;;;;;;7.97;6.22;;;461.00;2380.80;;;;;;5053931;28;20029;-78
2022/05/29 06:35:08;;;;;;;12.45;7.18;;;461.00;2380.80;;;;;;5053880;28;20032;-78
2022/05/29 06:37:35;;;;;;;9.70;6.38;;;460.90;2380.80;;;;;;5054999;28;20021;-79
2022/05/29 06:40:02;;;;;;;10.88;6.25;;;461.10;2380.80;;;;;;5054876;28;20392;-80
2022/05/29 06:42:27;;;;;;;10.25;6.80;;;460.90;2380.80;;;;;;5053844;28;20033;-76
2022/05/29 06:44:53;;;;;;;8.80;6.07;;;461.00;2380.80;;;;;;5053327;28;20021;-77
2022/05/29 06:47:19;;;;;;;11.90;6.15;;;461.00;2380.80;;;;;;5054454;28;20150;-76
2022/05/29 06:49:48;;;;;;;12.60;6.60;;;461.00;2380.80;;;;;;5053239;28;20361;-77
2022/05/29 06:52:15;;;;;;;10.35;5.90;;;461.00;2380.80;;;;;;5050270;28;20392;-77
2022/05/29 06:54:41;;;;;;;12.00;7.32;;;461.10;2380.80;;;;;;5054485;28;20028;-77
2022/05/29 06:57:08;;;;;;;16.02;6.93;;;461.20;2380.80;;;;;;5053294;28;20064;-78
2022/05/29 07:07:59;;;;;;;12.93;6.75;;;461.50;2380.80;;;;;;5054574;28;20163;-78
2022/05/29 07:10:30;;;;;;;9.38;5.95;;;461.50;2380.80;;;;;;5052963;28;20025;-77
2022/05/29 07:12:57;;;;;;;12.15;6.72;;;461.40;2380.80;;;;;;5052942;28;20043;-78
2022/05/29 07:15:23;;;;;;;11.82;7.65;;;461.30;2380.80;;;;;;5053019;28;20025;-78
2022/05/29 07:17:49;;;;;;;12.02;6.82;;;461.30;2380.80;;;;;;5054296;28;20031;-78
2022/05/29 07:20:16;;;;;;;10.73;6.60;;;461.30;2380.80;;;;;;5052886;28;20029;-79
2022/05/29 07:22:43;;;;;;;13.02;6.93;;;461.30;2380.80;;;;;;5054594;28;20495;-80
2022/05/29 07:25:11;;;;;;;9.82;6.57;;;461.30;2380.80;;;;;;5054140;28;20111;-77
2022/05/29 07:27:40;;;;;;;10.68;6.20;;;461.40;2380.80;;;;;;5052628;28;20051;-78
2022/05/29 07:30:07;;;;;;;10.70;6.57;;;461.40;2380.80;;;;;;5051874;28;20447;-75
2022/05/29 07:32:33;;;;;;;12.38;6.88;;;461.40;2380.80;;;;;;5052641;28;20033;-78
2022/05/29 07:34:59;;;;;;;15.10;6.75;;;461.30;2380.80;;;;;;5053845;28;20087;-78
2022/05/29 07:37:26;;;;;;;13.40;6.82;;;461.50;2380.80;;;;;;5053861;28;20028;-78
2022/05/29 07:39:53;;;;;;;9.82;7.05;;;461.60;2380.80;;;;;;5052544;28;20480;-78
2022/05/29 07:45:05;;;;;;;10.00;6.88;;;461.50;2380.80;;;;;;5053666;28;20431;-79
2022/05/29 07:47:41;;;;;;;12.82;6.97;;;461.40;2380.80;;;;;;5052009;28;20025;-79
2022/05/29 07:50:12;;;;;;;11.25;6.40;;;461.40;2380.80;;;;;;5052754;28;20056;-78
2022/05/29 07:52:38;;;;;;;12.70;7.30;;;461.50;2380.80;;;;;;5052525;28;20021;-79
2022/05/29 07:55:04;;;;;;;11.60;6.70;;;461.50;2380.80;;;;;;5052662;28;20020;-79
2022/05/29 07:57:30;;;;;;;10.00;6.10;;;461.40;2380.80;;;;;;5052612;28;20021;-80
2022/05/29 07:59:55;;;;;;;10.90;7.40;;;461.50;2380.80;;;;;;5053075;28;20048;-79
2022/05/29 08:02:21;;;;;;;10.90;7.60;;;461.40;2380.80;;;;;;5052555;28;20086;-78
2022/05/29 08:04:47;;;;;;;15.80;7.53;;;461.50;2380.80;;;;;;5052412;28;20461;-78
2022/05/29 08:07:16;;;;;;;11.60;7.10;;;461.40;2380.80;;;;;;5052351;28;20021;-78
2022/05/29 08:09:42;;;;;;;12.50;7.18;;;461.50;2380.80;;;;;;5053425;28;20048;-77
2022/05/29 08:12:08;;;;;;;9.30;6.70;;;461.70;2380.80;;;;;;5057614;28;20021;-80
2022/05/29 08:14:34;;;;;;;9.38;6.40;;;486.40;2380.80;;;;;;5051665;28;20103;-78
2022/05/29 08:17:00;;;;;;;9.50;6.32;;;486.50;2380.80;;;;;;5052004;28;20029;-80
2022/05/29 08:19:26;;;;;;;11.25;6.95;;;486.50;2380.80;;;;;;5052204;28;20029;-81
2022/05/29 08:21:52;;;;;;;16.65;7.32;;;486.60;2380.80;;;;;;5053024;28;20026;-78
2022/05/29 08:32:35;;;;;;;8.60;6.47;;;486.40;2380.80;;;;;;5053516;28;20171;-78
2022/05/29 08:35:01;;;;;;;15.27;7.25;;;486.50;2380.80;;;;;;5053493;28;20052;-79
2022/05/29 08:37:28;;;;;;;10.45;7.53;;;486.50;2380.80;;;;;;5052763;28;20021;-79
2022/05/29 08:39:53;;;;;;;9.27;6.57;;;486.50;2380.80;;;;;;5051457;28;20044;-78
2022/05/29 08:42:20;;;;;;;11.05;7.13;;;486.60;2380.80;;;;;;5051413;28;20468;-75
2022/05/29 08:44:47;;;;;;;8.00;5.93;;;486.50;2380.80;;;;;;5052684;28;20068;-78
2022/05/29 08:47:15;;;;;;;14.25;7.72;;;486.70;2380.80;;;;;;5051725;28;20087;-81
2022/05/29 08:49:45;;;;;;;10.30;6.80;;;486.70;2380.80;;;;;;5051407;28;20029;-79
2022/05/29 08:52:32;;;;;;;17.20;7.28;;;486.70;2380.80;;;;;;5051284;28;20036;-79
2022/05/29 08:55:11;;;;;;;11.30;6.40;;;486.70;2380.80;;;;;;5050158;28;20025;-78
2022/05/29 08:57:48;;;;;;;10.23;6.22;;;486.80;2380.80;;;;;;5051465;28;20052;-80
2022/05/29 09:00:50;;;;;;;11.20;6.93;;;486.90;2380.80;;;;;;5052456;28;20044;-78
2022/05/29 09:03:27;;;;;;;8.90;6.40;;;487.10;2380.80;;;;;;4993503;28;20034;-78
2022/05/29 09:06:11;;;;;;;9.95;6.85;;;487.30;2380.80;;;;;;5014529;28;20025;-78
2022/05/29 09:08:49;;;;;;;10.98;6.03;;;512.00;2380.80;;;;;;5014356;28;20029;-78
2022/05/29 09:11:31;;;;;;;9.30;6.13;;;512.30;2380.80;;;;;;4998052;28;20037;-80
2022/05/29 09:14:20;;;;;;;9.88;6.90;;;512.20;2380.80;;;;;;4996951;28;20026;-79
2022/05/29 09:17:03;;;;;;;9.00;6.47;;;512.30;2380.80;;;;;;5017065;28;20069;-80
2022/05/29 09:19:51;;;;;;;8.93;6.13;;;512.30;2380.80;;;;;;5013679;28;20037;-77
2022/05/29 09:22:32;;;;;;;12.35;6.05;;;512.40;2380.80;;;;;;4996929;28;20096;-79
2022/05/29 09:25:12;;;;;;;8.82;5.47;;;512.50;2380.80;;;;;;5012605;28;20556;-78
2022/05/29 09:27:44;;;;;;;10.82;7.15;;;512.30;2380.80;;;;;;4997976;28;20042;-79
2022/05/29 09:30:11;;;;;;;10.73;5.82;;;512.60;2380.80;;;;;;4997473;28;20050;-81
2022/05/29 09:32:53;;;;;;;8.75;6.30;;;512.60;2380.80;;;;;;5014467;28;20049;-76
2022/05/29 09:35:41;;;;;;;11.68;7.28;;;512.60;2380.80;;;;;;5014360;28;20077;-87
2022/05/29 09:38:32;;;;;;;22.45;6.57;;;512.30;2380.80;;;;;;5015165;28;20026;-79
2022/05/29 09:41:29;;;;;;;8.70;6.65;;;512.20;2380.80;;;;;;5030631;28;20049;-81
2022/05/29 09:44:16;;;;;;;8.02;6.15;;;512.00;2380.80;;;;;;5036526;28;20068;-77
2022/05/29 09:46:50;;;;;;;11.00;5.90;;;487.20;2380.80;;;;;;5034948;28;20485;-79
2022/05/29 09:49:41;;;;;;;8.45;5.72;;;487.20;2380.80;;;;;;5045469;28;20056;-78
2022/05/29 09:52:21;;;;;;;10.20;6.22;;;487.20;2380.80;;;;;;5053063;28;20037;-80
2022/05/29 09:54:55;;;;;;;9.35;6.25;;;487.10;2380.80;;;;;;5051399;28;20033;-77
2022/05/29 09:57:27;;;;;;;12.35;5.68;;;487.10;2380.80;;;;;;5054260;28;20396;-77
2022/05/29 10:00:24;;;;;;;13.10;5.88;;;487.10;2380.80;;;;;;5054947;28;20627;-74
2022/05/29 10:02:51;;;;;;;7.07;5.07;;;487.10;2380.80;;;;;;5055460;28;20037;-75
2022/05/29 10:05:35;;;;;;;14.88;6.13;;;487.10;2380.80;;;;;;5055679;28;20017;-78
2022/05/29 10:08:19;;;;;;;14.30;6.80;;;487.20;2380.80;;;;;;5054741;28;20033;-73
2022/05/29 10:10:44;;;;;;;10.82;6.55;;;487.10;2380.80;;;;;;5054382;28;20040;-75
2022/05/29 10:13:10;;;;;;;11.13;5.43;;;487.20;2380.80;;;;;;5054248;28;20061;-77
2022/05/29 10:15:40;;;;;;;13.48;5.88;;;487.10;2380.80;;;;;;5053662;28;20523;-76
2022/05/29 10:18:32;;;;;;;8.20;5.03;;;487.10;2380.80;;;;;;5052966;28;20503;-75
2022/05/29 10:21:27;;;;;;;10.10;5.80;;;487.10;2380.80;;;;;;5054659;28;20033;-75
2022/05/29 10:24:20;;;;;;;10.75;5.47;;;487.10;2380.80;;;;;;5053819;28;20076;-76
2022/05/29 10:26:49;;;;;;;7.93;5.53;;;487.00;2380.80;;;;;;5032396;28;20040;-75
2022/05/29 10:29:37;;;;;;;10.30;5.00;;;486.90;2380.80;;;;;;5032488;28;20063;-76
2022/05/29 10:32:09;;;;;;;10.20;5.45;;;486.90;2380.80;;;;;;5031809;28;20048;-77
2022/05/29 10:34:39;;;;;;;13.82;5.93;;;487.00;2380.80;;;;;;5015628;28;20022;-77
2022/05/29 10:37:34;;;;;;;7.60;5.03;;;487.10;2380.80;;;;;;5015572;28;20069;-76
2022/05/29 10:40:12;;;;;;;8.70;4.82;;;487.20;2380.80;;;;;;5032458;28;20034;-76
2022/05/29 10:42:42;;;;;;;8.60;5.43;;;487.30;2380.80;;;;;;5032338;28;20033;-76
2022/05/29 10:45:20;;;;;;;9.40;5.65;;;487.20;2380.80;;;;;;5015775;28;20116;-74
2022/05/29 10:48:02;;;;;;;10.32;4.78;;;487.30;2380.80;;;;;;5032175;28;20152;-76
2022/05/29 10:51:11;;;;;;;8.05;4.63;;;512.00;2380.80;;;;;;5015702;28;20033;-77
2022/05/29 10:53:59;;;;;;;9.32;5.32;;;512.10;2380.80;;;;;;4953621;28;20036;-76
2022/05/29 10:56:45;;;;;;;10.25;4.95;;;512.30;2380.80;;;;;;4960579;28;20122;-76
2022/05/29 10:59:26;;;;;;;;;;;512.50;2380.80;;;;;;4962998;28;20039;-76
2022/05/29 11:05:03;;;;;;;14.02;5.38;;;;;;;;;;4988059;28;20394;-76
2022/05/29 11:07:38;;;;;;;10.85;5.13;;;538.00;2406.40;;;;;;4998160;28;20040;-76
2022/05/29 11:10:09;;;;;;;9.80;5.70;;;538.40;2406.40;;;;;;4992150;28;20034;-76
2022/05/29 11:12:41;;;;;;;10.85;5.25;;;538.10;2406.40;;;;;;4992326;28;20506;-76
2022/05/29 11:15:39;;;;;;;7.40;5.72;;;538.00;2406.40;;;;;;4992769;28;20031;-76
2022/05/29 11:18:17;;;;;;;10.73;5.30;;;537.80;2406.40;;;;;;4992648;28;20030;-76
2022/05/29 11:21:05;;;;;;;8.35;5.00;;;537.60;2406.40;;;;;;4991511;28;20035;-77
2022/05/29 11:23:51;;;;;;;8.60;5.88;;;512.90;2380.80;;;;;;4992540;28;20125;-78
2022/05/29 11:26:39;;;;;;;9.77;6.22;;;512.80;2380.80;;;;;;4992591;28;20030;-75
2022/05/29 11:29:14;;;;;;;9.48;6.28;;;512.70;2380.80;;;;;;4992198;28;20050;-74
2022/05/29 11:31:51;;;;;;;8.10;6.03;;;512.70;2380.80;;;;;;5033798;28;20034;-77
2022/05/29 11:34:31;;;;;;;13.30;6.50;;;512.60;2380.80;;;;;;5033798;28;20017;-78
2022/05/29 11:37:16;;;;;;;11.98;5.53;;;512.50;2380.80;;;;;;5048723;28;20484;-79
2022/05/29 11:39:48;;;;;;;8.05;4.85;;;512.50;2380.80;;;;;;5032316;28;20033;-79
2022/05/29 11:42:22;;;;;;;8.32;4.28;;;512.30;2380.80;;;;;;5033693;28;20021;-78
2022/05/29 11:44:59;;;;;;;10.35;4.88;;;512.30;2380.80;;;;;;5039442;28;20051;-77
2022/05/29 11:53:40;;;;;;;8.50;4.55;;;512.30;2380.80;;;;;;5053885;28;20500;-78
2022/05/29 11:56:15;;;;;;;9.18;4.20;;;512.40;2380.80;;;;;;5053161;28;20044;-77
2022/05/29 11:58:59;;;;;;;10.73;4.85;;;512.50;2380.80;;;;;;5051050;28;20473;-78
2022/05/29 12:01:35;;;;;;;8.25;4.65;;;512.60;2380.80;;;;;;5048514;28;20033;-78
2022/05/29 12:04:10;;;;;;;10.67;5.53;;;512.40;2380.80;;;;;;5050270;28;20116;-77
2022/05/29 12:06:40;;;;;;;9.43;5.38;;;512.40;2380.80;;;;;;5049369;28;20020;-77
2022/05/29 12:09:09;;;;;;;17.15;5.43;;;512.40;2380.80;;;;;;5050349;28;20112;-77
2022/05/29 12:11:41;;;;;;;14.90;5.32;;;512.30;2380.80;;;;;;5049570;28;20075;-78
2022/05/29 12:14:20;;;;;;;10.23;5.00;;;512.30;2380.80;;;;;;5051764;28;20032;-78
2022/05/29 12:16:59;;;;;;;10.98;5.82;;;512.20;2380.80;;;;;;5050351;28;20025;-77
2022/05/29 12:19:31;;;;;;;6.95;4.65;;;512.20;2380.80;;;;;;5050175;28;20025;-77
2022/05/29 12:22:06;;;;;;;12.95;5.47;;;512.10;2380.80;;;;;;5052469;28;20029;-77
2022/05/29 12:24:37;;;;;;;9.60;5.07;;;512.10;2380.80;;;;;;5049609;28;20033;-77
2022/05/29 12:27:13;;;;;;;6.80;4.72;;;512.20;2380.80;;;;;;5049903;28;20017;-78
2022/05/29 12:29:48;;;;;;;10.30;5.00;;;512.30;2380.80;;;;;;5051550;28;20037;-78
2022/05/29 12:32:24;;;;;;;10.50;5.47;;;512.20;2380.80;;;;;;5052556;28;20110;-78
2022/05/29 12:34:55;;;;;;;6.45;4.78;;;512.10;2380.80;;;;;;5052249;28;20025;-77
2022/05/29 12:37:44;;;;;;;12.18;4.90;;;512.00;2380.80;;;;;;5054923;28;20047;-78
2022/05/29 12:40:31;;;;;;;11.65;4.45;;;512.00;2380.80;;;;;;5010688;28;20516;-77
2022/05/29 12:43:27;;;;;;;8.50;4.60;;;512.00;2380.80;;;;;;5006611;28;20037;-77
2022/05/29 12:46:04;;;;;;;8.83;5.03;;;512.00;2380.80;;;;;;5022489;28;20064;-77
2022/05/29 12:48:48;;;;;;;8.82;4.22;;;487.30;2380.80;;;;;;5031778;28;20029;-77
2022/05/29 12:51:35;;;;;;;8.45;4.90;;;487.30;2380.80;;;;;;5022645;28;20038;-77
2022/05/29 12:54:01;;;;;;;8.85;5.75;;;487.30;2380.80;;;;;;5029250;28;20157;-77
2022/05/29 12:57:01;;;;;;;7.82;5.25;;;487.30;2380.80;;;;;;5025219;28;20037;-79
2022/05/29 13:00:07;;;;;;;8.88;4.80;;;512.00;2380.80;;;;;;4949396;28;20589;-77
2022/05/29 13:03:02;;;;;;;10.90;4.93;;;512.00;2380.80;;;;;;4948193;28;20423;-76
2022/05/29 13:05:46;;;;;;;8.70;5.88;;;512.00;2380.80;;;;;;4958274;28;20543;-76
2022/05/29 13:08:47;;;;;;;8.32;4.55;;;512.00;2380.80;;;;;;4966123;28;20060;-76
2022/05/29 13:11:21;;;;;;;7.07;5.60;;;512.10;2380.80;;;;;;4945837;28;20043;-76
2022/05/29 13:13:48;;;;;;;9.95;5.80;;;512.30;2380.80;;;;;;4945298;29;20027;-76
2022/05/29 13:16:28;;;;;;;12.00;5.75;;;512.30;2380.80;;;;;;4944075;29;20066;-76
2022/05/29 13:22:01;;;;;;;13.38;9.68;;;512.20;2380.80;;;;;;4945509;29;20488;-77